Time;durP1;ratioP1;P1;durP2;ratioP2;P2;SDS_P1;SDS_P2;PMS_P1;PMS_P2;Temp;Humidity;BMP_temperature;BMP_pressure;BME280_temperature;BME280_humidity;BME280_pressure;Samples;Min_cycle;Max_cycle;Signal;HPM_P1;HPM_P2
2023/03/23 00:04:37;;;;;;;;;;;;;;;;;;10371638;28;878;-78
2023/03/23 00:09:34;;;;;;;;;;;;;;;;;;10371399;28;803;-77
2023/03/23 00:14:30;;;;;;;;;;;;;;;;;;10371212;28;787;-77
2023/03/23 00:19:26;;;;;;;;;;;;;;;;;;10371491;28;1955;-78
2023/03/23 00:24:22;;;;;;;;;;;;;;;;;;10371789;28;897;-78
2023/03/23 00:29:19;;;;;;;;;;;;;;;;;;10370621;28;822;-78
2023/03/23 00:34:18;;;;;;;;;;;;;;;;;;10371016;28;898;-78
2023/03/23 00:39:16;;;;;;;;;;;;;;;;;;10369978;28;1948;-78
2023/03/23 00:44:16;;;;;;;;;;;;;;;;;;10369747;28;822;-78
2023/03/23 00:49:12;;;;;;;;;;;;;;;;;;10369751;28;898;-78
2023/03/23 00:54:08;;;;;;;;;;;;;;;;;;10369690;28;838;-78
2023/03/23 00:59:04;;;;;;;;;;;;;;;;;;10369374;28;1980;-78
2023/03/23 01:04:03;;;;;;;;;;;;;;;;;;10369816;28;876;-77
2023/03/23 01:09:00;;;;;;;;;;;;;;;;;;10369078;28;803;-77
2023/03/23 01:13:56;;;;;;;;;;;;;;;;;;10368490;28;1557;-77
2023/03/23 01:18:52;;;;;;;;;;;;;;;;;;10369245;28;1890;-77
2023/03/23 01:23:48;;;;;;;;;;;;;;;;;;10368484;28;972;-77
2023/03/23 01:28:44;;;;;;;;;;;;;;;;;;10368288;28;854;-77
2023/03/23 01:33:40;;;;;;;;;;;;;;;;;;10368210;28;868;-77
2023/03/23 01:38:36;;;;;;;;;;;;;;;;;;10367901;28;1890;-77
2023/03/23 01:43:31;;;;;;;;;;;;;;;;;;10368376;28;1132;-78
2023/03/23 01:48:27;;;;;;;;;;;;;;;;;;10366943;28;826;-77
2023/03/23 01:53:23;;;;;;;;;;;;;;;;;;10367411;28;897;-77
2023/03/23 01:58:19;;;;;;;;;;;;;;;;;;10366197;28;1902;-77
2023/03/23 02:03:17;;;;;;;;;;;;;;;;;;10366988;28;1004;-77
2023/03/23 02:08:13;;;;;;;;;;;;;;;;;;10367492;28;897;-77
2023/03/23 02:13:09;;;;;;;;;;;;;;;;;;10367479;28;840;-77
2023/03/23 02:18:05;;;;;;;;;;;;;;;;;;10366654;28;1882;-77
2023/03/23 02:23:01;;;;;;;;;;;;;;;;;;10366557;28;856;-77
2023/03/23 02:27:56;;;;;;;;;;;;;;;;;;10366442;28;829;-78
2023/03/23 02:32:53;;;;;;;;;;;;;;;;;;10366323;28;960;-78
2023/03/23 02:37:49;;;;;;;;;;;;;;;;;;10366796;28;1885;-77
2023/03/23 02:42:45;;;;;;;;;;;;;;;;;;10365324;28;1593;-77
2023/03/23 02:47:41;;;;;;;;;;;;;;;;;;10366045;28;962;-78
2023/03/23 02:52:37;;;;;;;;;;;;;;;;;;10365924;28;1147;-78
2023/03/23 02:57:33;;;;;;;;;;;;;;;;;;10366417;28;1902;-77
2023/03/23 03:02:29;;;;;;;;;;;;;;;;;;10365769;28;1048;-77
2023/03/23 03:07:24;;;;;;;;;;;;;;;;;;10365685;28;779;-78
2023/03/23 03:12:20;;;;;;;;;;;;;;;;;;10373674;28;913;-78
2023/03/23 03:17:16;;;;;;;;;;;;;;;;;;10374041;28;1886;-78
2023/03/23 03:22:12;;;;;;;;;;;;;;;;;;10372712;28;862;-78
2023/03/23 03:27:08;;;;;;;;;;;;;;;;;;10373127;28;863;-78
2023/03/23 03:32:05;;;;;;;;;;;;;;;;;;10373601;28;825;-77
2023/03/23 03:37:04;;;;;;;;;;;;;;;;;;10372522;28;1881;-77
2023/03/23 03:42:00;;;;;;;;;;;;;;;;;;10372831;28;1150;-77
2023/03/23 03:46:56;;;;;;;;;;;;;;;;;;10372562;28;977;-77
2023/03/23 03:51:52;;;;;;;;;;;;;;;;;;10373486;28;793;-77
2023/03/23 03:56:48;;;;;;;;;;;;;;;;;;10372504;28;1955;-78
2023/03/23 04:01:43;;;;;;;;;;;;;;;;;;10371769;28;846;-78
2023/03/23 04:06:39;;;;;;;;;;;;;;;;;;10371066;28;961;-77
2023/03/23 04:11:35;;;;;;;;;;;;;;;;;;10372119;28;863;-77
2023/03/23 04:16:34;;;;;;;;;;;;;;;;;;10371717;28;1906;-77
2023/03/23 04:21:30;;;;;;;;;;;;;;;;;;10371331;28;874;-77
2023/03/23 04:26:26;;;;;;;;;;;;;;;;;;10370875;28;861;-77
2023/03/23 04:31:24;;;;;;;;;;;;;;;;;;10371232;28;830;-78
2023/03/23 04:36:22;;;;;;;;;;;;;;;;;;10370340;28;1941;-78
2023/03/23 04:41:18;;;;;;;;;;;;;;;;;;10370000;28;1259;-78
2023/03/23 04:46:17;;;;;;;;;;;;;;;;;;10370661;28;878;-78
2023/03/23 04:51:13;;;;;;;;;;;;;;;;;;10370608;28;845;-78
2023/03/23 04:56:09;;;;;;;;;;;;;;;;;;10370188;28;1973;-77
2023/03/23 05:01:05;;;;;;;;;;;;;;;;;;10370100;28;850;-77
2023/03/23 05:06:01;;;;;;;;;;;;;;;;;;10369251;28;797;-77
2023/03/23 05:10:57;;;;;;;;;;;;;;;;;;10369039;28;837;-78
2023/03/23 05:15:53;;;;;;;;;;;;;;;;;;10369411;28;1931;-78
2023/03/23 05:20:52;;;;;;;;;;;;;;;;;;10369910;28;882;-77
2023/03/23 05:25:49;;;;;;;;;;;;;;;;;;10368402;28;885;-79
2023/03/23 05:30:45;;;;;;;;;;;;;;;;;;10368219;28;866;-78
2023/03/23 05:35:41;;;;;;;;;;;;;;;;;;10368697;28;906;-79
2023/03/23 05:40:37;;;;;;;;;;;;;;;;;;10367860;28;1874;-78
2023/03/23 05:45:33;;;;;;;;;;;;;;;;;;10368168;28;1056;-77
2023/03/23 05:50:29;;;;;;;;;;;;;;;;;;10367644;28;1073;-79
2023/03/23 05:55:25;;;;;;;;;;;;;;;;;;10366851;28;982;-78
2023/03/23 06:00:23;;;;;;;;;;;;;;;;;;10367255;28;1898;-77
2023/03/23 06:05:19;;;;;;;;;;;;;;;;;;10366424;28;1162;-77
2023/03/23 06:10:16;;;;;;;;;;;;;;;;;;10366899;28;892;-78
2023/03/23 06:15:12;;;;;;;;;;;;;;;;;;10366763;28;964;-77
2023/03/23 06:20:09;;;;;;;;;;;;;;;;;;10366595;28;1878;-77
2023/03/23 06:25:05;;;;;;;;;;;;;;;;;;10366493;28;885;-77
2023/03/23 06:30:01;;;;;;;;;;;;;;;;;;10366455;28;835;-76
2023/03/23 06:34:57;;;;;;;;;;;;;;;;;;10366230;28;893;-77
2023/03/23 06:39:53;;;;;;;;;;;;;;;;;;10366238;28;1941;-76
2023/03/23 06:44:49;;;;;;;;;;;;;;;;;;10371401;28;995;-77
2023/03/23 06:49:45;;;;;;;;;;;;;;;;;;10374641;28;897;-77
2023/03/23 06:54:41;;;;;;;;;;;;;;;;;;10373660;28;1110;-77
2023/03/23 06:59:37;;;;;;;;;;;;;;;;;;10372455;28;1967;-76
2023/03/23 07:04:33;;;;;;;;;;;;;;;;;;10373508;28;1163;-77
2023/03/23 07:09:29;;;;;;;;;;;;;;;;;;10373918;28;870;-76
2023/03/23 07:14:25;;;;;;;;;;;;;;;;;;10374016;28;984;-76
2023/03/23 07:19:21;;;;;;;;;;;;;;;;;;10373635;28;1886;-77
2023/03/23 07:24:18;;;;;;;;;;;;;;;;;;10373093;28;1197;-77
2023/03/23 07:29:14;;;;;;;;;;;;;;;;;;10372649;28;792;-78
2023/03/23 07:34:10;;;;;;;;;;;;;;;;;;10373396;28;876;-78
2023/03/23 07:39:05;;;;;;;;;;;;;;;;;;10372113;28;1945;-77
2023/03/23 07:44:01;;;;;;;;;;;;;;;;;;10372601;28;834;-80
2023/03/23 07:48:57;;;;;;;;;;;;;;;;;;10371924;28;914;-78
2023/03/23 07:53:54;;;;;;;;;;;;;;;;;;10372077;28;785;-77
2023/03/23 07:58:51;;;;;;;;;;;;;;;;;;10371241;28;1909;-77
2023/03/23 08:03:47;;;;;;;;;;;;;;;;;;10373160;28;1587;-77
2023/03/23 08:08:42;;;;;;;;;;;;;;;;;;10371774;28;818;-77
2023/03/23 08:13:39;;;;;;;;;;;;;;;;;;10371572;28;973;-77
2023/03/23 08:18:35;;;;;;;;;;;;;;;;;;10371479;28;1964;-77
2023/03/23 08:23:30;;;;;;;;;;;;;;;;;;10352926;28;870;-78
2023/03/23 08:28:26;;;;;;;;;;;;;;;;;;10364085;28;1525;-76
2023/03/23 08:33:22;;;;;;;;;;;;;;;;;;10388601;28;785;-76
2023/03/23 08:38:21;;;;;;;;;;;;;;;;;;10393327;28;1890;-80
2023/03/23 08:43:16;;;;;;;;;;;;;;;;;;10411881;28;1320;-76
2023/03/23 08:48:13;;;;;;;;;;;;;;;;;;10411635;28;888;-77
2023/03/23 08:53:09;;;;;;;;;;;;;;;;;;10411134;28;810;-78
2023/03/23 08:58:04;;;;;;;;;;;;;;;;;;10410641;28;1906;-77
2023/03/23 09:03:01;;;;;;;;;;;;;;;;;;10409658;28;1028;-77
2023/03/23 09:07:58;;;;;;;;;;;;;;;;;;10410896;28;883;-76
2023/03/23 09:12:54;;;;;;;;;;;;;;;;;;10410086;28;882;-76
2023/03/23 09:17:50;;;;;;;;;;;;;;;;;;10410186;28;1957;-77
2023/03/23 09:22:46;;;;;;;;;;;;;;;;;;10410551;28;947;-77
2023/03/23 09:27:42;;;;;;;;;;;;;;;;;;10409854;28;871;-78
2023/03/23 09:32:38;;;;;;;;;;;;;;;;;;10409651;28;859;-77
2023/03/23 09:37:35;;;;;;;;;;;;;;;;;;10409477;28;1941;-77
2023/03/23 09:42:31;;;;;;;;;;;;;;;;;;10409580;28;1736;-77
2023/03/23 09:47:28;;;;;;;;;;;;;;;;;;10409206;28;874;-77
2023/03/23 09:52:24;;;;;;;;;;;;;;;;;;10409589;28;953;-75
2023/03/23 09:57:20;;;;;;;;;;;;;;;;;;10383749;28;1913;-78
2023/03/23 10:02:17;;;;;;;;;;;;;;;;;;10408721;28;762;-77
2023/03/23 10:07:13;;;;;;;;;;;;;;;;;;10408469;28;969;-78
2023/03/23 10:12:09;;;;;;;;;;;;;;;;;;10408366;28;1044;-77
2023/03/23 10:17:05;;;;;;;;;;;;;;;;;;10408472;28;1885;-75
2023/03/23 10:22:01;;;;;;;;;;;;;;;;;;10408541;28;834;-78
2023/03/23 10:26:57;;;;;;;;;;;;;;;;;;10407704;28;995;-81
2023/03/23 10:31:53;;;;;;;;;;;;;;;;;;10407824;28;759;-80
2023/03/23 10:36:49;;;;;;;;;;;;;;;;;;10407689;28;1885;-79
2023/03/23 10:41:45;;;;;;;;;;;;;;;;;;10408346;28;1145;-79
2023/03/23 10:46:46;;;;;;;;;;;;;;;;;;10407515;28;1091;-79
2023/03/23 10:51:43;;;;;;;;;;;;;;;;;;10408026;28;867;-80
2023/03/23 10:56:39;;;;;;;;;;;;;;;;;;10407216;28;1972;-79
2023/03/23 11:01:36;;;;;;;;;;;;;;;;;;10407899;28;883;-79
2023/03/23 11:06:35;;;;;;;;;;;;;;;;;;10407051;28;898;-79
2023/03/23 11:11:31;;;;;;;;;;;;;;;;;;10407272;28;885;-80
2023/03/23 11:16:27;;;;;;;;;;;;;;;;;;10406878;28;1878;-78
2023/03/23 11:21:23;;;;;;;;;;;;;;;;;;10406851;28;1012;-78
2023/03/23 11:26:20;;;;;;;;;;;;;;;;;;10406936;28;802;-80
2023/03/23 11:31:16;;;;;;;;;;;;;;;;;;10410685;28;972;-79
2023/03/23 11:36:12;;;;;;;;;;;;;;;;;;10414416;28;1882;-80
2023/03/23 11:41:08;;;;;;;;;;;;;;;;;;10396422;28;1400;-80
2023/03/23 11:46:04;;;;;;;;;;;;;;;;;;10414720;28;932;-80
2023/03/23 11:51:00;;;;;;;;;;;;;;;;;;10414521;28;847;-79
2023/03/23 11:55:56;;;;;;;;;;;;;;;;;;10413593;28;870;-79
2023/03/23 12:00:52;;;;;;;;;;;;;;;;;;10413345;28;1959;-79
2023/03/23 12:05:48;;;;;;;;;;;;;;;;;;10413317;28;807;-79
2023/03/23 12:10:44;;;;;;;;;;;;;;;;;;10413742;28;878;-77
2023/03/23 12:15:40;;;;;;;;;;;;;;;;;;10412308;28;981;-76
2023/03/23 12:20:35;;;;;;;;;;;;;;;;;;10412592;28;1890;-77
2023/03/23 12:25:32;;;;;;;;;;;;;;;;;;10412486;28;776;-78
2023/03/23 12:30:27;;;;;;;;;;;;;;;;;;10412965;28;866;-78
2023/03/23 12:35:24;;;;;;;;;;;;;;;;;;10412091;28;862;-78
2023/03/23 12:40:23;;;;;;;;;;;;;;;;;;10411351;28;1889;-77
2023/03/23 12:45:19;;;;;;;;;;;;;;;;;;10397129;28;1113;-77
2023/03/23 12:50:17;;;;;;;;;;;;;;;;;;10369373;28;888;-78
2023/03/23 12:55:14;;;;;;;;;;;;;;;;;;10369437;28;865;-78
2023/03/23 13:00:10;;;;;;;;;;;;;;;;;;10369818;28;1902;-77
2023/03/23 13:05:06;;;;;;;;;;;;;;;;;;10369332;28;780;-78
2023/03/23 13:10:03;;;;;;;;;;;;;;;;;;10369626;28;919;-77
2023/03/23 13:14:59;;;;;;;;;;;;;;;;;;10369106;28;917;-78
2023/03/23 13:19:55;;;;;;;;;;;;;;;;;;10368451;28;1882;-78
2023/03/23 13:24:51;;;;;;;;;;;;;;;;;;10369042;28;857;-77
2023/03/23 13:29:48;;;;;;;;;;;;;;;;;;10368035;28;887;-77
2023/03/23 13:34:44;;;;;;;;;;;;;;;;;;10368300;28;891;-77
2023/03/23 13:39:39;;;;;;;;;;;;;;;;;;10368522;28;1958;-77
2023/03/23 13:44:35;;;;;;;;;;;;;;;;;;10368330;28;925;-77
2023/03/23 13:49:32;;;;;;;;;;;;;;;;;;10367452;28;975;-77
2023/03/23 13:54:28;;;;;;;;;;;;;;;;;;10366810;28;842;-77
2023/03/23 13:59:24;;;;;;;;;;;;;;;;;;10366571;28;1967;-77
2023/03/23 14:04:20;;;;;;;;;;;;;;;;;;10366399;28;855;-77
2023/03/23 14:09:16;;;;;;;;;;;;;;;;;;10366887;28;762;-77
2023/03/23 14:14:12;;;;;;;;;;;;;;;;;;10366016;28;894;-77
2023/03/23 14:19:08;;;;;;;;;;;;;;;;;;10366473;28;1878;-77
2023/03/23 14:24:04;;;;;;;;;;;;;;;;;;10366628;28;914;-77
2023/03/23 14:29:00;;;;;;;;;;;;;;;;;;10366340;28;848;-78
2023/03/23 14:33:56;;;;;;;;;;;;;;;;;;10366753;28;791;-80
2023/03/23 14:38:52;;;;;;;;;;;;;;;;;;10366601;28;1935;-78
2023/03/23 14:43:47;;;;;;;;;;;;;;;;;;10366643;28;989;-78
2023/03/23 14:48:43;;;;;;;;;;;;;;;;;;10365887;28;872;-78
2023/03/23 14:53:39;;;;;;;;;;;;;;;;;;10366368;28;957;-78
2023/03/23 14:58:35;;;;;;;;;;;;;;;;;;10365610;28;1906;-78
2023/03/23 15:03:31;;;;;;;;;;;;;;;;;;10365756;28;792;-78
2023/03/23 15:08:30;;;;;;;;;;;;;;;;;;10373681;28;851;-77
2023/03/23 15:13:26;;;;;;;;;;;;;;;;;;10374403;28;821;-78
2023/03/23 15:18:22;;;;;;;;;;;;;;;;;;10374292;28;1882;-77
2023/03/23 15:23:18;;;;;;;;;;;;;;;;;;10374125;28;873;-77
2023/03/23 15:28:13;;;;;;;;;;;;;;;;;;10373855;28;814;-77
2023/03/23 15:33:09;;;;;;;;;;;;;;;;;;10373132;28;905;-77
2023/03/23 15:38:06;;;;;;;;;;;;;;;;;;10372806;28;1882;-77
2023/03/23 15:43:02;;;;;;;;;;;;;;;;;;10371979;28;1500;-77
2023/03/23 15:47:57;;;;;;;;;;;;;;;;;;10372595;28;1004;-78
2023/03/23 15:52:53;;;;;;;;;;;;;;;;;;10372338;28;910;-77
2023/03/23 15:57:49;;;;;;;;;;;;;;;;;;10371490;28;1901;-77
2023/03/23 16:02:45;;;;;;;;;;;;;;;;;;10371966;28;779;-78
2023/03/23 16:07:41;;;;;;;;;;;;;;;;;;10371767;28;917;-77
2023/03/23 16:12:37;;;;;;;;;;;;;;;;;;10371622;28;1027;-77
2023/03/23 16:17:33;;;;;;;;;;;;;;;;;;10371187;28;1874;-77
2023/03/23 16:22:29;;;;;;;;;;;;;;;;;;10370595;28;949;-77
2023/03/23 16:27:25;;;;;;;;;;;;;;;;;;10370448;28;779;-77
2023/03/23 16:32:20;;;;;;;;;;;;;;;;;;10371424;28;803;-77
2023/03/23 16:37:17;;;;;;;;;;;;;;;;;;10369906;28;1894;-77
2023/03/23 16:42:12;;;;;;;;;;;;;;;;;;10371074;28;1263;-77
2023/03/23 16:47:08;;;;;;;;;;;;;;;;;;10369762;28;1051;-77
2023/03/23 16:52:04;;;;;;;;;;;;;;;;;;10370059;28;789;-77
2023/03/23 16:57:00;;;;;;;;;;;;;;;;;;10369738;28;1910;-75
2023/03/23 17:02:01;;;;;;;;;;;;;;;;;;10369645;28;863;-77
2023/03/23 17:06:57;;;;;;;;;;;;;;;;;;10369497;28;889;-77
2023/03/23 17:11:53;;;;;;;;;;;;;;;;;;10369557;28;878;-77
2023/03/23 17:16:49;;;;;;;;;;;;;;;;;;10368937;28;1944;-77
2023/03/23 17:21:45;;;;;;;;;;;;;;;;;;10369664;28;826;-77
2023/03/23 17:26:41;;;;;;;;;;;;;;;;;;10368453;28;849;-77
2023/03/23 17:31:37;;;;;;;;;;;;;;;;;;10368512;28;977;-77
2023/03/23 17:36:33;;;;;;;;;;;;;;;;;;10367785;28;1874;-77
2023/03/23 17:41:28;;;;;;;;;;;;;;;;;;10367665;28;1555;-79
2023/03/23 17:46:25;;;;;;;;;;;;;;;;;;10368527;28;961;-77
2023/03/23 17:51:21;;;;;;;;;;;;;;;;;;10368307;28;1616;-77
2023/03/23 17:56:17;;;;;;;;;;;;;;;;;;10366924;28;1527;-76
2023/03/23 18:01:12;;;;;;;;;;;;;;;;;;10367389;28;1914;-77
2023/03/23 18:06:08;;;;;;;;;;;;;;;;;;10367827;28;849;-77
2023/03/23 18:11:04;;;;;;;;;;;;;;;;;;10367002;28;971;-77
2023/03/23 18:16:00;;;;;;;;;;;;;;;;;;10366327;28;851;-77
2023/03/23 18:20:56;;;;;;;;;;;;;;;;;;10366681;28;1874;-77
2023/03/23 18:25:55;;;;;;;;;;;;;;;;;;10366548;28;916;-77
2023/03/23 18:30:51;;;;;;;;;;;;;;;;;;10366634;28;829;-77
2023/03/23 18:35:47;;;;;;;;;;;;;;;;;;10366590;28;922;-77
2023/03/23 18:40:42;;;;;;;;;;;;;;;;;;10366428;28;1894;-77
2023/03/23 18:45:38;;;;;;;;;;;;;;;;;;10366780;28;865;-77
2023/03/23 18:50:34;;;;;;;;;;;;;;;;;;10366152;28;973;-77
2023/03/23 18:55:30;;;;;;;;;;;;;;;;;;10366002;28;950;-77
2023/03/23 19:00:26;;;;;;;;;;;;;;;;;;10366003;28;1914;-77
2023/03/23 19:05:22;;;;;;;;;;;;;;;;;;10365233;28;1109;-76
2023/03/23 19:10:19;;;;;;;;;;;;;;;;;;10365701;28;833;-77
2023/03/23 19:15:15;;;;;;;;;;;;;;;;;;10366829;28;1008;-77
2023/03/23 19:20:11;;;;;;;;;;;;;;;;;;10366175;28;1952;-78
2023/03/23 19:25:07;;;;;;;;;;;;;;;;;;10365184;28;987;-76
2023/03/23 19:30:03;;;;;;;;;;;;;;;;;;10365194;28;914;-77
2023/03/23 19:34:59;;;;;;;;;;;;;;;;;;10364509;28;871;-77
2023/03/23 19:39:55;;;;;;;;;;;;;;;;;;10364679;28;1886;-76
2023/03/23 19:44:51;;;;;;;;;;;;;;;;;;10365018;28;938;-76
2023/03/23 19:49:47;;;;;;;;;;;;;;;;;;10365562;28;881;-76
2023/03/23 19:54:43;;;;;;;;;;;;;;;;;;10372153;28;835;-77
2023/03/23 19:59:39;;;;;;;;;;;;;;;;;;10371842;28;1963;-77
2023/03/23 20:04:35;;;;;;;;;;;;;;;;;;10371751;28;789;-77
2023/03/23 20:09:31;;;;;;;;;;;;;;;;;;10371541;28;857;-76
2023/03/23 20:14:27;;;;;;;;;;;;;;;;;;10371904;28;811;-77
2023/03/23 20:19:22;;;;;;;;;;;;;;;;;;10370781;28;1890;-76
2023/03/23 20:24:18;;;;;;;;;;;;;;;;;;10372202;28;966;-76
2023/03/23 20:29:14;;;;;;;;;;;;;;;;;;10370707;28;754;-76
2023/03/23 20:34:11;;;;;;;;;;;;;;;;;;10370474;28;853;-76
2023/03/23 20:39:08;;;;;;;;;;;;;;;;;;10370146;28;1955;-76
2023/03/23 20:44:03;;;;;;;;;;;;;;;;;;10370523;28;1070;-77
2023/03/23 20:49:00;;;;;;;;;;;;;;;;;;10369976;28;769;-79
2023/03/23 20:53:55;;;;;;;;;;;;;;;;;;10370388;28;953;-77
2023/03/23 20:58:52;;;;;;;;;;;;;;;;;;10369578;28;1971;-76
2023/03/23 21:03:52;;;;;;;;;;;;;;;;;;10370013;28;842;-75
2023/03/23 21:08:50;;;;;;;;;;;;;;;;;;10369835;28;835;-78
2023/03/23 21:13:46;;;;;;;;;;;;;;;;;;10369156;28;869;-79
2023/03/23 21:18:42;;;;;;;;;;;;;;;;;;10369007;28;1951;-79
2023/03/23 21:23:45;;;;;;;;;;;;;;;;;;10368898;28;885;-79
2023/03/23 21:28:41;;;;;;;;;;;;;;;;;;10368691;28;975;-79
2023/03/23 21:33:37;;;;;;;;;;;;;;;;;;10368520;28;929;-79
2023/03/23 21:38:33;;;;;;;;;;;;;;;;;;10368582;28;1890;-79
2023/03/23 21:43:29;;;;;;;;;;;;;;;;;;10367309;28;1491;-79
2023/03/23 21:48:25;;;;;;;;;;;;;;;;;;10367940;28;835;-80
2023/03/23 21:53:21;;;;;;;;;;;;;;;;;;10367738;28;767;-79
2023/03/23 21:58:17;;;;;;;;;;;;;;;;;;10368195;28;1914;-79
2023/03/23 22:03:17;;;;;;;;;;;;;;;;;;10367348;28;866;-79
2023/03/23 22:08:13;;;;;;;;;;;;;;;;;;10366577;28;940;-79
2023/03/23 22:13:09;;;;;;;;;;;;;;;;;;10367122;28;1015;-79
2023/03/23 22:18:05;;;;;;;;;;;;;;;;;;10366784;28;1889;-79
2023/03/23 22:23:01;;;;;;;;;;;;;;;;;;10367680;28;838;-79
2023/03/23 22:27:57;;;;;;;;;;;;;;;;;;10367269;28;939;-79
2023/03/23 22:32:53;;;;;;;;;;;;;;;;;;10367527;28;1623;-79
2023/03/23 22:37:48;;;;;;;;;;;;;;;;;;10366352;28;1961;-79
2023/03/23 22:42:44;;;;;;;;;;;;;;;;;;10365622;28;1505;-79
2023/03/23 22:47:40;;;;;;;;;;;;;;;;;;10367067;28;945;-79
2023/03/23 22:52:36;;;;;;;;;;;;;;;;;;10366971;28;871;-79
2023/03/23 22:57:32;;;;;;;;;;;;;;;;;;10365996;28;1914;-79
2023/03/23 23:02:28;;;;;;;;;;;;;;;;;;10365958;28;926;-79
2023/03/23 23:07:24;;;;;;;;;;;;;;;;;;10366574;28;872;-79
2023/03/23 23:12:20;;;;;;;;;;;;;;;;;;10365767;28;794;-79
2023/03/23 23:17:16;;;;;;;;;;;;;;;;;;10366105;28;1894;-79
2023/03/23 23:22:12;;;;;;;;;;;;;;;;;;10365547;28;885;-79
2023/03/23 23:27:08;;;;;;;;;;;;;;;;;;10368718;28;1200;-79
2023/03/23 23:32:04;;;;;;;;;;;;;;;;;;10373344;28;811;-79
2023/03/23 23:37:00;;;;;;;;;;;;;;;;;;10373029;28;1890;-79
2023/03/23 23:41:56;;;;;;;;;;;;;;;;;;10372897;28;1339;-79
2023/03/23 23:46:52;;;;;;;;;;;;;;;;;;10372753;28;884;-79
2023/03/23 23:51:47;;;;;;;;;;;;;;;;;;10372465;28;904;-79
2023/03/23 23:56:43;;;;;;;;;;;;;;;;;;10372260;28;1909;-79
